createdAt,value
2022-10-10T00:00:52.851Z,99.99
2022-10-10T00:01:52.882Z,99.99
2022-10-10T00:02:53.166Z,99.99
2022-10-10T00:03:52.818Z,99.99
2022-10-10T00:04:52.799Z,99.99
2022-10-10T00:05:52.790Z,99.99
2022-10-10T00:06:52.806Z,99.99
2022-10-10T00:07:52.767Z,99.99
2022-10-10T00:08:52.759Z,99.99
2022-10-10T00:09:52.748Z,99.99
2022-10-10T00:10:52.745Z,99.99
2022-10-10T00:11:52.742Z,99.99
2022-10-10T00:12:53.096Z,99.99
2022-10-10T00:13:52.708Z,99.99
2022-10-10T00:14:52.690Z,99.99
2022-10-10T00:15:52.679Z,99.99
2022-10-10T00:16:52.689Z,99.99
2022-10-10T00:17:59.225Z,99.99
2022-10-10T00:18:52.640Z,99.99
2022-10-10T00:19:52.625Z,99.99
2022-10-10T00:20:52.614Z,99.99
2022-10-10T00:21:52.628Z,99.99
2022-10-10T00:22:53.112Z,99.99
2022-10-10T00:23:52.586Z,99.99
2022-10-10T00:24:52.568Z,99.99
2022-10-10T00:25:52.622Z,99.99
2022-10-10T00:26:52.588Z,99.99
2022-10-10T00:27:52.536Z,99.99
2022-10-10T00:28:52.537Z,99.99
2022-10-10T00:29:52.559Z,99.99
2022-10-10T00:30:52.516Z,99.99
2022-10-10T00:31:52.552Z,99.99
2022-10-10T00:32:52.886Z,99.99
2022-10-10T00:33:52.484Z,99.99
2022-10-10T00:34:52.464Z,99.99
2022-10-10T00:35:52.453Z,99.99
2022-10-10T00:36:52.465Z,99.99
2022-10-10T00:37:52.427Z,99.99
2022-10-10T00:38:52.438Z,99.99
2022-10-10T00:39:52.403Z,99.99
2022-10-10T00:40:52.467Z,99.99
2022-10-10T00:41:52.410Z,99.99
2022-10-10T00:42:52.670Z,99.99
2022-10-10T00:43:52.371Z,99.99
2022-10-10T00:44:52.346Z,99.99
2022-10-10T00:45:52.353Z,99.99
2022-10-10T00:46:52.375Z,99.99
2022-10-10T00:47:52.328Z,99.99
2022-10-10T00:48:52.317Z,99.99
2022-10-10T00:49:52.306Z,99.99
2022-10-10T00:50:52.287Z,99.99
2022-10-10T00:51:52.299Z,99.99
2022-10-10T00:52:52.717Z,99.99
2022-10-10T00:53:52.261Z,99.99
2022-10-10T00:54:52.238Z,99.99
2022-10-10T00:55:52.237Z,99.99
2022-10-10T00:56:52.235Z,99.99
2022-10-10T00:57:52.216Z,99.99
2022-10-10T00:58:52.208Z,99.99
2022-10-10T00:59:52.191Z,99.99
2022-10-10T01:00:52.211Z,99.99
2022-10-10T01:01:52.209Z,99.99
2022-10-10T01:02:52.792Z,99.99
2022-10-10T01:03:52.155Z,99.99
2022-10-10T01:04:52.132Z,99.99
2022-10-10T01:05:52.130Z,99.99
2022-10-10T01:06:52.122Z,99.99
2022-10-10T01:07:52.098Z,99.99
2022-10-10T01:08:52.088Z,99.99
2022-10-10T01:09:52.097Z,99.99
2022-10-10T01:10:52.065Z,99.99
2022-10-10T01:11:52.070Z,99.99
2022-10-10T01:12:52.375Z,99.99
2022-10-10T01:13:52.061Z,99.99
2022-10-10T01:14:52.019Z,99.99
2022-10-10T01:15:52.002Z,99.99
2022-10-10T01:16:52.018Z,99.99
2022-10-10T01:17:51.983Z,99.99
2022-10-10T01:18:51.974Z,99.99
2022-10-10T01:19:51.961Z,99.99
2022-10-10T01:20:51.950Z,99.99
2022-10-10T01:21:51.970Z,99.99
2022-10-10T01:22:52.398Z,99.99
2022-10-10T01:23:51.918Z,99.99
2022-10-10T01:24:51.916Z,99.99
2022-10-10T01:25:51.902Z,99.99
2022-10-10T01:26:51.902Z,99.99
2022-10-10T01:27:51.887Z,99.99
2022-10-10T01:28:51.870Z,99.99
2022-10-10T01:29:51.855Z,99.99
2022-10-10T01:30:51.832Z,99.99
2022-10-10T01:31:51.855Z,99.99
2022-10-10T01:32:52.197Z,99.99
2022-10-10T01:33:51.802Z,99.99
2022-10-10T01:34:51.799Z,99.99
2022-10-10T01:35:51.789Z,99.99
2022-10-10T01:36:51.783Z,99.99
2022-10-10T01:37:51.768Z,99.99
2022-10-10T01:38:51.753Z,99.99
2022-10-10T01:39:51.740Z,99.99
2022-10-10T01:40:51.723Z,99.99
2022-10-10T01:41:51.758Z,99.99
2022-10-10T01:42:52.263Z,99.99
2022-10-10T01:43:51.699Z,99.99
2022-10-10T01:44:51.678Z,99.99
2022-10-10T01:45:51.674Z,99.99
2022-10-10T01:46:51.666Z,99.99
2022-10-10T01:47:51.669Z,99.99
2022-10-10T01:48:51.643Z,99.99
2022-10-10T01:49:51.642Z,99.99
2022-10-10T01:50:51.618Z,99.99
2022-10-10T01:51:51.608Z,99.99
2022-10-10T01:52:52.081Z,99.99
2022-10-10T01:53:51.589Z,99.99
2022-10-10T01:54:51.571Z,99.99
2022-10-10T01:55:51.560Z,99.99
2022-10-10T01:56:51.563Z,99.99
2022-10-10T01:57:51.577Z,99.99
2022-10-10T01:58:51.531Z,99.99
2022-10-10T01:59:51.526Z,99.99
2022-10-10T02:00:51.534Z,99.99
2022-10-10T02:01:51.489Z,99.99
2022-10-10T02:02:51.761Z,99.99
2022-10-10T02:03:51.495Z,99.99
2022-10-10T02:04:51.458Z,99.99
2022-10-10T02:05:51.469Z,99.99
2022-10-10T02:06:51.432Z,99.99
2022-10-10T02:07:51.456Z,99.99
2022-10-10T02:08:51.421Z,99.99
2022-10-10T02:09:51.422Z,99.99
2022-10-10T02:10:51.414Z,99.99
2022-10-10T02:11:51.391Z,99.99
2022-10-10T02:12:51.796Z,99.99
2022-10-10T02:13:51.359Z,99.99
2022-10-10T02:14:51.353Z,99.99
2022-10-10T02:15:51.344Z,99.99
2022-10-10T02:16:51.335Z,99.99
2022-10-10T02:17:51.348Z,99.99
2022-10-10T02:18:51.311Z,99.99
2022-10-10T02:19:51.310Z,99.99
2022-10-10T02:20:51.298Z,99.99
2022-10-10T02:21:51.283Z,99.99
2022-10-10T02:22:51.627Z,99.99
2022-10-10T02:23:51.249Z,99.99
2022-10-10T02:24:51.242Z,99.99
2022-10-10T02:25:51.235Z,99.99
2022-10-10T02:26:51.221Z,99.99
2022-10-10T02:27:51.228Z,99.99
2022-10-10T02:28:51.194Z,99.99
2022-10-10T02:29:51.191Z,99.99
2022-10-10T02:30:51.175Z,99.99
2022-10-10T02:31:51.180Z,99.99
2022-10-10T02:32:51.403Z,99.99
2022-10-10T02:33:51.143Z,99.99
2022-10-10T02:34:51.130Z,99.99
2022-10-10T02:35:51.127Z,99.99
2022-10-10T02:36:51.103Z,99.99
2022-10-10T02:37:51.116Z,99.99
2022-10-10T02:38:51.084Z,99.99
2022-10-10T02:39:51.066Z,99.99
2022-10-10T02:40:51.061Z,99.99
2022-10-10T02:41:51.058Z,99.99
2022-10-10T02:42:51.365Z,99.99
2022-10-10T02:43:51.060Z,99.99
2022-10-10T02:44:51.025Z,99.99
2022-10-10T02:45:51.003Z,99.99
2022-10-10T02:46:51.004Z,99.99
2022-10-10T02:47:51.009Z,99.99
2022-10-10T02:48:50.971Z,99.99
2022-10-10T02:49:50.977Z,99.99
2022-10-10T02:50:50.954Z,99.99
2022-10-10T02:51:51.005Z,99.99
2022-10-10T02:52:51.241Z,99.99
2022-10-10T02:53:50.923Z,99.99
2022-10-10T02:54:50.920Z,99.99
2022-10-10T02:55:50.912Z,99.99
2022-10-10T02:56:50.895Z,99.99
2022-10-10T02:57:50.900Z,99.99
2022-10-10T02:58:50.864Z,99.99
2022-10-10T02:59:50.870Z,99.99
2022-10-10T03:00:50.898Z,99.99
2022-10-10T03:01:50.839Z,99.99
2022-10-10T03:02:51.047Z,99.99
2022-10-10T03:03:50.812Z,99.99
2022-10-10T03:04:50.797Z,99.99
2022-10-10T03:05:50.854Z,99.99
2022-10-10T03:06:50.781Z,99.99
2022-10-10T03:07:50.782Z,99.99
2022-10-10T03:08:50.748Z,99.99
2022-10-10T03:09:50.746Z,99.99
2022-10-10T03:10:50.727Z,99.99
2022-10-10T03:11:50.790Z,99.99
2022-10-10T03:12:50.970Z,99.99
2022-10-10T03:13:50.703Z,99.99
2022-10-10T03:14:50.693Z,99.99
2022-10-10T03:15:50.678Z,99.99
2022-10-10T03:16:50.654Z,99.99
2022-10-10T03:17:50.680Z,99.99
2022-10-10T03:18:50.642Z,99.99
2022-10-10T03:19:50.629Z,99.99
2022-10-10T03:20:50.619Z,99.99
2022-10-10T03:21:50.608Z,99.99
2022-10-10T03:22:50.882Z,99.99
2022-10-10T03:23:50.597Z,99.99
2022-10-10T03:24:50.584Z,99.99
2022-10-10T03:25:50.582Z,99.99
2022-10-10T03:26:50.560Z,99.99
2022-10-10T03:27:50.568Z,99.99
2022-10-10T03:28:50.525Z,99.99
2022-10-10T03:29:50.522Z,99.99
2022-10-10T03:30:50.509Z,99.99
2022-10-10T03:31:50.502Z,99.99
2022-10-10T03:32:50.717Z,99.99
2022-10-10T03:33:50.479Z,99.99
2022-10-10T03:34:50.486Z,99.99
2022-10-10T03:35:50.470Z,99.99
2022-10-10T03:36:50.439Z,99.99
2022-10-10T03:37:50.482Z,99.99
2022-10-10T03:38:50.442Z,99.99
2022-10-10T03:39:50.412Z,99.99
2022-10-10T03:40:50.418Z,99.99
2022-10-10T03:41:50.404Z,99.99
2022-10-10T03:42:50.632Z,99.99
2022-10-10T03:43:50.380Z,99.99
2022-10-10T03:44:50.355Z,99.99
2022-10-10T03:45:50.349Z,99.99
2022-10-10T03:46:50.339Z,99.99
2022-10-10T03:47:50.343Z,99.99
2022-10-10T03:48:50.314Z,99.99
2022-10-10T03:49:50.300Z,99.99
2022-10-10T03:50:50.291Z,99.99
2022-10-10T03:51:50.273Z,99.99
2022-10-10T03:52:50.643Z,99.99
2022-10-10T03:53:50.255Z,99.99
2022-10-10T03:54:50.237Z,99.99
2022-10-10T03:55:50.244Z,99.99
2022-10-10T03:56:50.221Z,99.99
2022-10-10T03:57:50.233Z,99.99
2022-10-10T03:58:50.207Z,99.99
2022-10-10T03:59:50.202Z,99.99
2022-10-10T04:00:50.180Z,99.99
2022-10-10T04:01:50.174Z,99.99
2022-10-10T04:02:50.484Z,99.99
2022-10-10T04:03:52.318Z,99.99
2022-10-10T04:04:50.134Z,99.99
2022-10-10T04:05:50.132Z,99.99
2022-10-10T04:06:50.119Z,99.99
2022-10-10T04:07:50.127Z,99.99
2022-10-10T04:08:50.093Z,99.99
2022-10-10T04:09:50.088Z,99.99
2022-10-10T04:10:50.069Z,99.99
2022-10-10T04:11:50.064Z,99.99
2022-10-10T04:12:50.426Z,99.99
2022-10-10T04:13:50.032Z,99.99
2022-10-10T04:14:50.016Z,99.99
2022-10-10T04:15:50.011Z,99.99
2022-10-10T04:16:50.004Z,99.99
2022-10-10T04:17:50.004Z,99.99
2022-10-10T04:18:49.976Z,99.99
2022-10-10T04:19:49.973Z,99.99
2022-10-10T04:20:49.952Z,99.99
2022-10-10T04:21:49.948Z,99.99
2022-10-10T04:22:50.176Z,99.99
2022-10-10T04:23:49.923Z,99.99
2022-10-10T04:24:49.916Z,99.99
2022-10-10T04:25:49.904Z,99.99
2022-10-10T04:26:49.885Z,99.99
2022-10-10T04:27:49.901Z,99.99
2022-10-10T04:28:49.879Z,99.99
2022-10-10T04:29:49.854Z,99.99
2022-10-10T04:30:49.861Z,99.99
2022-10-10T04:31:49.830Z,99.99
2022-10-10T04:32:50.164Z,99.99
2022-10-10T04:33:49.823Z,99.99
2022-10-10T04:34:49.810Z,99.99
2022-10-10T04:35:49.787Z,99.99
2022-10-10T04:36:49.774Z,99.99
2022-10-10T04:37:49.783Z,99.99
2022-10-10T04:38:49.771Z,99.99
2022-10-10T04:39:49.746Z,99.99
2022-10-10T04:40:49.740Z,99.99
2022-10-10T04:41:49.797Z,99.99
2022-10-10T04:42:49.985Z,99.99
2022-10-10T04:43:49.726Z,99.99
2022-10-10T04:44:49.695Z,99.99
2022-10-10T04:45:49.693Z,99.99
2022-10-10T04:46:49.675Z,99.99
2022-10-10T04:47:49.652Z,99.99
2022-10-10T04:48:49.672Z,99.99
2022-10-10T04:49:49.630Z,99.99
2022-10-10T04:50:49.646Z,99.99
2022-10-10T04:51:49.607Z,99.99
2022-10-10T04:52:49.889Z,99.99
2022-10-10T04:53:50.683Z,99.99
2022-10-10T04:54:49.581Z,99.99
2022-10-10T04:55:49.581Z,99.99
2022-10-10T04:56:49.548Z,99.99
2022-10-10T04:57:49.558Z,99.99
2022-10-10T04:58:49.549Z,99.99
2022-10-10T04:59:49.518Z,99.99
2022-10-10T05:00:49.512Z,99.99
2022-10-10T05:01:49.498Z,99.99
2022-10-10T05:02:49.798Z,99.99
2022-10-10T05:03:49.497Z,99.99
2022-10-10T05:04:49.479Z,99.99
2022-10-10T05:05:49.466Z,99.99
2022-10-10T05:06:49.441Z,99.99
2022-10-10T05:07:54.461Z,99.99
2022-10-10T05:08:49.445Z,99.99
2022-10-10T05:09:49.413Z,99.99
2022-10-10T05:10:49.411Z,99.99
2022-10-10T05:11:49.384Z,99.99
2022-10-10T05:12:49.730Z,99.99
2022-10-10T05:13:49.393Z,99.99
2022-10-10T05:14:49.362Z,99.99
2022-10-10T05:15:49.365Z,99.99
2022-10-10T05:16:49.324Z,99.99
2022-10-10T05:17:49.325Z,99.99
2022-10-10T05:18:49.319Z,99.99
2022-10-10T05:19:49.292Z,99.99
2022-10-10T05:20:49.283Z,99.99
2022-10-10T05:21:49.280Z,99.99
2022-10-10T05:22:49.631Z,99.99
2022-10-10T05:23:49.269Z,99.99
2022-10-10T05:24:49.245Z,99.99
2022-10-10T05:25:49.226Z,99.99
2022-10-10T05:26:49.224Z,99.99
2022-10-10T05:27:49.214Z,99.99
2022-10-10T05:28:49.205Z,99.99
2022-10-10T05:29:49.183Z,99.99
2022-10-10T05:30:49.175Z,99.99
2022-10-10T05:31:49.169Z,99.99
2022-10-10T05:32:49.570Z,99.99
2022-10-10T05:33:49.177Z,99.99
2022-10-10T05:34:49.128Z,99.99
2022-10-10T05:35:49.115Z,99.99
2022-10-10T05:36:49.103Z,99.99
2022-10-10T05:37:49.093Z,99.99
2022-10-10T05:38:49.095Z,99.99
2022-10-10T05:39:53.682Z,99.99
2022-10-10T05:40:49.071Z,99.99
2022-10-10T05:41:49.048Z,99.99
2022-10-10T05:42:49.349Z,99.99
2022-10-10T05:43:49.082Z,99.99
2022-10-10T05:44:49.024Z,99.99
2022-10-10T05:45:49.010Z,99.99
2022-10-10T05:46:48.996Z,99.99
2022-10-10T05:47:48.984Z,99.99
2022-10-10T05:48:48.976Z,99.99
2022-10-10T05:49:48.964Z,99.99
2022-10-10T05:50:48.959Z,99.99
2022-10-10T05:51:48.943Z,99.99
2022-10-10T05:52:49.286Z,99.99
2022-10-10T05:53:48.936Z,99.99
2022-10-10T05:54:48.911Z,99.99
2022-10-10T05:55:48.924Z,99.99
2022-10-10T05:56:48.879Z,99.99
2022-10-10T05:57:48.886Z,99.99
2022-10-10T05:58:48.890Z,99.99
2022-10-10T05:59:48.861Z,99.99
2022-10-10T06:00:48.843Z,99.99
2022-10-10T06:01:48.845Z,99.99
2022-10-10T06:02:49.305Z,99.99
2022-10-10T06:03:48.843Z,99.99
2022-10-10T06:04:48.802Z,99.99
2022-10-10T06:05:48.813Z,99.99
2022-10-10T06:06:48.811Z,99.99
2022-10-10T06:08:09.278Z,99.99
2022-10-10T06:08:48.778Z,99.99
2022-10-10T06:09:48.752Z,99.99
2022-10-10T06:10:48.735Z,99.99
2022-10-10T06:11:48.739Z,99.99
2022-10-10T06:12:48.960Z,99.99
2022-10-10T06:13:48.718Z,99.99
2022-10-10T06:14:48.697Z,99.99
2022-10-10T06:15:48.688Z,99.99
2022-10-10T06:16:48.673Z,99.99
2022-10-10T06:18:59.265Z,99.99
2022-10-10T06:20:00.244Z,99.99
2022-10-10T06:21:00.238Z,99.99
2022-10-10T06:22:00.219Z,99.99
2022-10-10T06:23:00.222Z,99.99
2022-10-10T06:24:00.220Z,99.99
2022-10-10T06:25:00.200Z,99.99
2022-10-10T06:26:00.181Z,99.99
2022-10-10T06:27:00.170Z,99.99
2022-10-10T06:28:00.166Z,99.99
2022-10-10T06:29:00.162Z,99.99
2022-10-10T06:30:00.138Z,99.99
2022-10-10T06:31:00.130Z,99.99
2022-10-10T06:32:00.107Z,99.99
2022-10-10T06:33:00.495Z,99.99
2022-10-10T06:34:00.111Z,99.99
2022-10-10T06:35:00.099Z,99.99
2022-10-10T06:36:00.092Z,99.99
2022-10-10T06:37:00.073Z,99.99
2022-10-10T06:38:00.056Z,99.99
2022-10-10T06:39:00.061Z,99.99
2022-10-10T06:40:00.043Z,99.99
2022-10-10T06:41:00.595Z,99.99
2022-10-10T06:42:00.020Z,99.99
2022-10-10T06:43:00.000Z,99.99
2022-10-10T06:44:00.001Z,99.99
2022-10-10T06:44:59.988Z,99.99
2022-10-10T06:45:59.952Z,99.99
2022-10-10T06:46:59.972Z,99.99
2022-10-10T06:47:59.948Z,99.99
2022-10-10T06:48:59.941Z,99.99
2022-10-10T06:49:59.931Z,99.99
2022-10-10T06:50:59.905Z,99.99
2022-10-10T06:51:59.942Z,99.99
2022-10-10T06:52:59.885Z,99.99
2022-10-10T06:53:59.921Z,99.99
2022-10-10T06:54:59.884Z,99.99
2022-10-10T06:55:59.966Z,99.99
2022-10-10T06:56:59.837Z,99.99
2022-10-10T06:57:59.833Z,99.99
2022-10-10T06:58:59.835Z,99.99
2022-10-10T06:59:59.857Z,99.99
2022-10-10T07:00:59.801Z,99.99
2022-10-10T07:01:59.796Z,99.99
2022-10-10T07:02:59.776Z,99.99
2022-10-10T07:04:02.621Z,99.99
2022-10-10T07:04:59.756Z,99.99
2022-10-10T07:05:59.734Z,99.99
2022-10-10T07:06:59.725Z,99.99
2022-10-10T07:07:59.742Z,99.99
2022-10-10T07:08:59.721Z,99.99
2022-10-10T07:09:59.688Z,99.99
2022-10-10T07:10:59.678Z,99.99
2022-10-10T07:11:59.673Z,99.99
2022-10-10T07:12:59.661Z,99.99
2022-10-10T07:13:59.665Z,99.99
2022-10-10T07:14:59.632Z,99.99
2022-10-10T07:15:59.640Z,99.99
2022-10-10T07:16:59.644Z,99.99
2022-10-10T07:17:59.630Z,99.99
2022-10-10T07:18:59.642Z,99.99
2022-10-10T07:19:59.621Z,99.99
2022-10-10T07:20:59.602Z,99.99
2022-10-10T07:21:59.564Z,99.99
2022-10-10T07:22:59.580Z,99.99
2022-10-10T07:23:59.570Z,99.99
2022-10-10T07:24:59.557Z,99.99
2022-10-10T07:25:59.510Z,99.99
2022-10-10T07:27:06.243Z,99.99
2022-10-10T07:27:59.505Z,99.99
2022-10-10T07:28:59.529Z,99.99
2022-10-10T07:29:59.498Z,99.99
2022-10-10T07:30:59.476Z,99.99
2022-10-10T07:31:59.468Z,99.99
2022-10-10T07:32:59.451Z,99.99
2022-10-10T07:33:59.438Z,99.99
2022-10-10T07:34:59.436Z,99.99
2022-10-10T07:35:59.429Z,99.99
2022-10-10T07:36:59.407Z,99.99
2022-10-10T07:37:59.380Z,99.99
2022-10-10T07:38:59.392Z,99.99
2022-10-10T07:39:59.406Z,99.99
2022-10-10T07:40:59.439Z,99.99
2022-10-10T07:41:59.359Z,99.99
2022-10-10T07:42:59.356Z,99.99
2022-10-10T07:43:59.359Z,99.99
2022-10-10T07:44:59.314Z,99.99
2022-10-10T07:46:58.291Z,99.99
2022-10-10T07:47:59.282Z,99.99
2022-10-10T07:48:59.310Z,99.99
2022-10-10T07:49:59.282Z,99.99
2022-10-10T07:50:59.305Z,99.99
2022-10-10T07:52:01.583Z,99.99
2022-10-10T07:52:59.220Z,99.99
2022-10-10T07:53:59.229Z,99.99
2022-10-10T07:54:59.200Z,99.99
2022-10-10T07:55:59.259Z,99.99
2022-10-10T07:56:59.194Z,99.99
2022-10-10T07:57:59.798Z,99.99
2022-10-10T07:58:59.191Z,99.99
2022-10-10T07:59:59.139Z,99.99
2022-10-10T08:00:59.207Z,99.99
2022-10-10T08:01:59.208Z,99.99
2022-10-10T08:02:59.100Z,99.99
2022-10-10T08:03:59.110Z,99.99
2022-10-10T08:04:59.120Z,99.99
2022-10-10T08:05:59.068Z,99.99
2022-10-10T08:06:59.075Z,99.99
2022-10-10T08:07:59.087Z,99.99
2022-10-10T08:08:59.069Z,99.99
2022-10-10T08:09:59.058Z,99.99
2022-10-10T08:10:59.035Z,99.99
2022-10-10T08:11:59.033Z,99.99
2022-10-10T08:12:59.030Z,99.99
2022-10-10T08:13:59.025Z,99.99
2022-10-10T08:14:59.054Z,99.99
2022-10-10T08:15:58.978Z,99.99
2022-10-10T08:16:58.966Z,99.99
2022-10-10T08:17:58.938Z,99.99
2022-10-10T08:18:58.976Z,99.99
2022-10-10T08:19:58.909Z,99.99
2022-10-10T08:20:58.918Z,99.99
2022-10-10T08:21:58.901Z,99.99
2022-10-10T08:22:58.882Z,99.99
2022-10-10T08:23:58.931Z,99.99
2022-10-10T08:24:58.947Z,99.99
2022-10-10T08:25:58.844Z,99.99
2022-10-10T08:26:58.885Z,99.99
2022-10-10T08:27:58.830Z,99.99
2022-10-10T08:28:58.857Z,99.99
2022-10-10T08:29:58.839Z,99.99
2022-10-10T08:31:00.993Z,99.99
2022-10-10T08:31:58.822Z,99.99
2022-10-10T08:32:58.786Z,99.70
2022-10-10T08:33:58.782Z,99.70
2022-10-10T08:34:58.767Z,99.04
2022-10-10T08:35:58.751Z,98.94
2022-10-10T08:36:58.734Z,98.83
2022-10-10T08:37:58.706Z,98.83
2022-10-10T08:38:58.758Z,98.63
2022-10-10T08:39:58.688Z,97.71
2022-10-10T08:40:58.680Z,96.95
2022-10-10T08:41:58.685Z,96.95
2022-10-10T08:42:59.240Z,96.39
2022-10-10T08:43:58.692Z,96.08
2022-10-10T08:44:58.651Z,94.75
2022-10-10T08:45:58.619Z,96.04
2022-10-10T08:46:58.620Z,96.14
2022-10-10T08:47:58.635Z,96.55
2022-10-10T08:48:58.595Z,96.75
2022-10-10T08:49:58.591Z,96.96
2022-10-10T08:50:58.601Z,97.00
2022-10-10T08:51:58.568Z,95.84
2022-10-10T08:52:58.549Z,94.40
2022-10-10T08:53:58.573Z,94.81
2022-10-10T08:54:58.815Z,95.43
2022-10-10T08:55:58.509Z,95.94
2022-10-10T08:56:58.522Z,95.94
2022-10-10T08:57:58.523Z,93.85
2022-10-10T08:58:58.556Z,92.47
2022-10-10T08:59:58.479Z,94.32
2022-10-10T09:00:58.489Z,94.93
2022-10-10T09:02:17.805Z,95.34
2022-10-10T09:02:58.637Z,95.64
2022-10-10T09:03:58.459Z,95.89
2022-10-10T09:04:58.426Z,95.38
2022-10-10T09:05:58.428Z,95.28
2022-10-10T09:06:58.413Z,96.00
2022-10-10T09:07:58.395Z,96.61
2022-10-10T09:08:58.388Z,96.81
2022-10-10T09:09:58.363Z,97.22
2022-10-10T09:10:58.867Z,96.92
2022-10-10T09:11:58.346Z,96.51
2022-10-10T09:12:58.376Z,96.26
2022-10-10T09:13:58.361Z,96.56
2022-10-10T09:15:02.192Z,96.56
2022-10-10T09:15:58.340Z,96.05
2022-10-10T09:16:58.304Z,95.75
2022-10-10T09:17:58.276Z,96.15
2022-10-10T09:18:58.294Z,96.36
2022-10-10T09:19:58.289Z,96.56
2022-10-10T09:20:58.668Z,96.67
2022-10-10T09:21:58.237Z,97.17
2022-10-10T09:22:58.216Z,93.76
2022-10-10T09:23:58.244Z,94.48
2022-10-10T09:24:58.221Z,93.86
2022-10-10T09:25:58.200Z,94.64
2022-10-10T09:26:58.184Z,94.84
2022-10-10T09:27:58.198Z,95.15
2022-10-10T09:28:58.195Z,94.53
2022-10-10T09:29:58.241Z,94.02
2022-10-10T09:30:58.310Z,94.43
2022-10-10T09:31:58.120Z,94.53
2022-10-10T09:32:58.118Z,94.84
2022-10-10T09:33:58.095Z,95.04
2022-10-10T09:34:58.118Z,94.64
2022-10-10T09:35:58.076Z,93.06
2022-10-10T09:36:59.480Z,94.08
2022-10-10T09:37:58.092Z,91.02
2022-10-10T09:38:58.043Z,89.55
2022-10-10T09:39:58.060Z,90.01
2022-10-10T09:40:58.321Z,91.20
2022-10-10T09:41:58.052Z,91.09
2022-10-10T09:42:58.007Z,91.61
2022-10-10T09:43:58.000Z,90.38
2022-10-10T09:44:58.004Z,90.48
2022-10-10T09:45:57.959Z,92.22
2022-10-10T09:46:57.944Z,92.57
2022-10-10T09:47:57.939Z,89.06
2022-10-10T09:48:57.983Z,90.18
2022-10-10T09:49:57.974Z,91.61
2022-10-10T09:50:58.218Z,91.81
2022-10-10T09:51:57.924Z,92.93
2022-10-10T09:52:57.917Z,93.44
2022-10-10T09:53:57.899Z,93.79
2022-10-10T09:54:57.877Z,94.60
2022-10-10T09:55:57.864Z,94.60
2022-10-10T09:56:57.860Z,94.81
2022-10-10T09:57:57.845Z,95.32
2022-10-10T09:58:57.831Z,95.32
2022-10-10T10:00:02.266Z,95.83
2022-10-10T10:00:58.210Z,93.59
2022-10-10T10:01:57.783Z,92.46
2022-10-10T10:02:57.787Z,92.83
2022-10-10T10:04:11.177Z,93.13
2022-10-10T10:04:57.807Z,93.74
2022-10-10T10:05:57.773Z,94.56
2022-10-10T10:06:57.741Z,91.30
2022-10-10T10:07:57.716Z,91.16
2022-10-10T10:08:57.708Z,93.19
2022-10-10T10:09:57.704Z,93.80
2022-10-10T10:10:57.886Z,94.21
2022-10-10T10:11:57.679Z,93.29
2022-10-10T10:12:57.657Z,93.90
2022-10-10T10:13:57.661Z,94.92
2022-10-10T10:14:57.670Z,94.87
2022-10-10T10:15:57.644Z,90.75
2022-10-10T10:16:57.614Z,92.18
2022-10-10T10:17:57.600Z,92.58
2022-10-10T10:18:57.607Z,92.27
2022-10-10T10:19:57.592Z,92.79
2022-10-10T10:20:57.898Z,90.60
2022-10-10T10:21:57.565Z,91.72
2022-10-10T10:22:57.575Z,88.73
2022-10-10T10:23:57.528Z,91.17
2022-10-10T10:24:57.532Z,91.88
2022-10-10T10:25:57.850Z,92.70
2022-10-10T10:26:57.518Z,92.29
2022-10-10T10:27:57.504Z,90.86
2022-10-10T10:28:57.664Z,90.36
2022-10-10T10:29:57.504Z,89.75
2022-10-10T10:30:57.454Z,89.64
2022-10-10T10:31:57.450Z,89.24
2022-10-10T10:32:57.453Z,90.05
2022-10-10T10:33:57.406Z,90.31
2022-10-10T10:34:57.420Z,90.46
2022-10-10T10:35:57.805Z,89.20
2022-10-10T10:36:57.394Z,90.62
2022-10-10T10:37:57.383Z,90.92
2022-10-10T10:38:57.413Z,91.23
2022-10-10T10:39:57.365Z,91.53
2022-10-10T10:40:57.353Z,92.09
2022-10-10T10:41:57.326Z,92.19
2022-10-10T10:42:57.336Z,92.60
2022-10-10T10:43:57.318Z,92.80
2022-10-10T10:44:57.329Z,93.31
2022-10-10T10:45:57.633Z,93.71
2022-10-10T10:46:57.313Z,93.82
2022-10-10T10:47:57.258Z,93.92
2022-10-10T10:48:57.300Z,94.57
2022-10-10T10:49:57.269Z,94.88
2022-10-10T10:50:57.730Z,94.68
2022-10-10T10:51:57.226Z,94.47
2022-10-10T10:52:57.210Z,92.94
2022-10-10T10:53:57.219Z,93.21
2022-10-10T10:54:57.237Z,89.54
2022-10-10T10:55:57.220Z,90.62
2022-10-10T10:57:02.144Z,92.35
2022-10-10T10:58:22.532Z,90.78
2022-10-10T10:59:22.483Z,91.90
2022-10-10T11:00:22.155Z,89.97
2022-10-10T11:01:27.965Z,90.23
2022-10-10T11:01:58.356Z,92.26
2022-10-10T11:03:05.903Z,92.97
2022-10-10T11:05:20.346Z,93.38
2022-10-10T11:05:36.750Z,93.18
2022-10-10T11:05:57.198Z,93.89
2022-10-10T11:07:17.379Z,94.50
2022-10-10T11:07:57.067Z,87.24
2022-10-10T11:08:57.053Z,89.78
2022-10-10T11:09:57.004Z,90.59
2022-10-10T11:10:57.336Z,91.30
2022-10-10T11:12:00.850Z,91.82
2022-10-10T11:12:57.002Z,87.04
2022-10-10T11:13:56.988Z,87.61
2022-10-10T11:14:56.979Z,88.62
2022-10-10T11:16:24.454Z,88.32
2022-10-10T11:16:56.957Z,89.94
2022-10-10T11:17:56.924Z,89.70
2022-10-10T11:18:56.940Z,90.00
2022-10-10T11:19:56.985Z,88.48
2022-10-10T11:20:57.356Z,90.51
2022-10-10T11:21:56.903Z,89.59
2022-10-10T11:22:56.887Z,90.31
2022-10-10T11:23:56.861Z,91.02
2022-10-10T11:24:56.861Z,88.89
2022-10-10T11:25:56.876Z,87.77
2022-10-10T11:26:56.830Z,89.29
2022-10-10T11:27:56.822Z,91.02
2022-10-10T11:28:56.864Z,91.93
2022-10-10T11:29:56.847Z,92.24
2022-10-10T11:30:57.219Z,90.11
2022-10-10T11:31:56.786Z,89.59
2022-10-10T11:32:56.759Z,88.68
2022-10-10T11:33:57.515Z,89.39
2022-10-10T11:34:56.729Z,90.00
2022-10-10T11:35:57.003Z,89.80
2022-10-10T11:36:56.742Z,84.75
2022-10-10T11:37:56.718Z,86.07
2022-10-10T11:38:56.723Z,88.20
2022-10-10T11:39:56.700Z,86.88
2022-10-10T11:40:56.665Z,88.40
2022-10-10T11:41:56.680Z,90.02
2022-10-10T11:42:56.646Z,90.22
2022-10-10T11:43:56.672Z,90.02
2022-10-10T11:44:56.641Z,90.26
2022-10-10T11:46:00.574Z,90.67
2022-10-10T11:46:56.603Z,91.38
2022-10-10T11:47:56.614Z,91.48
2022-10-10T11:48:56.662Z,91.58
2022-10-10T11:49:56.605Z,91.63
2022-10-10T11:50:56.572Z,88.03
2022-10-10T11:52:09.469Z,88.84
2022-10-10T11:52:56.541Z,90.57
2022-10-10T11:53:56.524Z,90.06
2022-10-10T11:54:56.530Z,88.90
2022-10-10T11:55:56.540Z,89.21
2022-10-10T11:56:56.487Z,87.28
2022-10-10T11:57:56.470Z,87.48
2022-10-10T11:58:56.466Z,88.20
2022-10-10T11:59:56.476Z,85.52
2022-10-10T12:00:56.439Z,88.46
2022-10-10T12:01:56.470Z,88.56
2022-10-10T12:02:56.431Z,89.37
2022-10-10T12:03:56.421Z,88.15
2022-10-10T12:04:56.412Z,88.15
2022-10-10T12:05:56.403Z,87.04
2022-10-10T12:06:56.399Z,87.45
2022-10-10T12:07:56.380Z,89.06
2022-10-10T12:08:56.364Z,85.07
2022-10-10T12:09:56.344Z,86.69
2022-10-10T12:10:56.332Z,83.72
2022-10-10T12:11:56.314Z,84.33
2022-10-10T12:12:56.312Z,85.70
2022-10-10T12:13:56.322Z,85.10
2022-10-10T12:14:56.289Z,86.82
2022-10-10T12:15:56.317Z,87.52
2022-10-10T12:16:56.266Z,87.12
2022-10-10T12:17:56.278Z,87.52
2022-10-10T12:19:03.895Z,88.68
2022-10-10T12:19:56.226Z,89.08
2022-10-10T12:20:56.218Z,89.18
2022-10-10T12:21:56.206Z,90.60
2022-10-10T12:22:56.198Z,86.35
2022-10-10T12:23:56.209Z,87.56
2022-10-10T12:24:56.188Z,87.36
2022-10-10T12:25:56.165Z,88.48
2022-10-10T12:26:56.251Z,88.21
2022-10-10T12:27:56.218Z,86.79
2022-10-10T12:28:56.174Z,88.31
2022-10-10T12:29:56.125Z,89.53
2022-10-10T12:30:58.528Z,89.83
2022-10-10T12:31:56.126Z,90.24
2022-10-10T12:32:56.101Z,90.44
2022-10-10T12:33:56.071Z,90.03
2022-10-10T12:34:56.074Z,89.73
2022-10-10T12:35:56.056Z,91.35
2022-10-10T12:36:56.083Z,91.66
2022-10-10T12:37:56.034Z,88.31
2022-10-10T12:39:00.613Z,87.60
2022-10-10T12:39:56.041Z,86.85
2022-10-10T12:40:56.009Z,87.16
2022-10-10T12:41:56.000Z,86.85
2022-10-10T12:42:56.009Z,86.65
2022-10-10T12:43:56.006Z,88.74
2022-10-10T12:44:55.963Z,85.19
2022-10-10T12:45:55.951Z,87.22
2022-10-10T12:46:55.939Z,87.68
2022-10-10T12:48:11.289Z,88.39
2022-10-10T12:48:55.942Z,88.23
2022-10-10T12:49:55.965Z,88.84
2022-10-10T12:50:55.897Z,87.62
2022-10-10T12:51:56.014Z,85.50
2022-10-10T12:52:55.866Z,86.31
2022-10-10T12:53:55.877Z,87.52
2022-10-10T12:54:55.896Z,87.48